createdAt,value
2023-03-06T00:00:28.418Z,18.25
2023-03-06T00:02:55.269Z,21.13
2023-03-06T00:05:22.132Z,18.67
2023-03-06T00:07:48.689Z,18.20
2023-03-06T00:10:17.804Z,21.95
2023-03-06T00:12:44.555Z,19.67
2023-03-06T00:15:13.593Z,18.48
2023-03-06T00:17:40.707Z,16.58
2023-03-06T00:20:09.396Z,18.85
2023-03-06T00:22:35.940Z,19.40
2023-03-06T00:25:02.492Z,17.70
2023-03-06T00:27:30.678Z,19.48
2023-03-06T00:29:57.944Z,17.92
2023-03-06T00:32:27.414Z,17.50
2023-03-06T00:34:55.638Z,20.60
2023-03-06T00:37:23.575Z,18.25
2023-03-06T00:39:50.562Z,15.95
2023-03-06T00:42:17.937Z,15.40
2023-03-06T00:44:45.044Z,12.25
2023-03-06T00:47:12.114Z,13.15
2023-03-06T00:49:40.073Z,15.70
2023-03-06T00:52:06.956Z,10.52
2023-03-06T00:54:33.503Z,11.93
2023-03-06T00:57:00.128Z,12.82
2023-03-06T00:59:26.730Z,9.27
2023-03-06T01:01:53.503Z,8.55
2023-03-06T01:04:20.150Z,9.18
2023-03-06T01:06:49.713Z,8.65
2023-03-06T01:09:16.288Z,7.15
2023-03-06T01:11:43.056Z,7.90
2023-03-06T01:14:11.052Z,9.30
2023-03-06T01:16:37.699Z,9.68
2023-03-06T01:19:04.378Z,10.93
2023-03-06T01:21:31.111Z,11.20
2023-03-06T01:23:59.891Z,9.65
2023-03-06T01:26:26.769Z,9.80
2023-03-06T01:28:53.340Z,9.40
2023-03-06T01:31:20.060Z,8.02
2023-03-06T01:33:46.887Z,9.38
2023-03-06T01:36:14.087Z,9.02
2023-03-06T01:38:40.665Z,10.43
2023-03-06T01:41:09.406Z,10.95
2023-03-06T01:43:38.803Z,9.85
2023-03-06T01:46:29.391Z,10.98
2023-03-06T01:48:59.214Z,9.18
2023-03-06T01:51:30.321Z,11.35
2023-03-06T01:53:59.708Z,8.32
2023-03-06T01:56:28.648Z,11.15
2023-03-06T01:58:56.041Z,9.63
2023-03-06T02:01:23.351Z,10.13
2023-03-06T02:03:51.059Z,9.40
2023-03-06T02:06:18.144Z,9.32
2023-03-06T02:08:45.122Z,8.52
2023-03-06T02:11:14.314Z,9.02
2023-03-06T02:13:43.332Z,9.07
2023-03-06T02:16:10.960Z,9.90
2023-03-06T02:18:39.862Z,9.73
2023-03-06T02:21:08.547Z,11.20
2023-03-06T02:23:45.696Z,8.88
2023-03-06T02:26:14.860Z,10.35
2023-03-06T02:28:41.798Z,12.15
2023-03-06T02:31:16.955Z,9.30
2023-03-06T02:33:43.666Z,11.02
2023-03-06T02:36:15.711Z,11.93
2023-03-06T02:38:47.511Z,10.68
2023-03-06T02:41:15.689Z,11.65
2023-03-06T02:43:43.866Z,9.95
2023-03-06T02:46:10.642Z,10.32
2023-03-06T02:48:37.307Z,10.85
2023-03-06T02:51:03.952Z,10.32
2023-03-06T02:53:32.144Z,11.10
2023-03-06T02:55:59.866Z,8.80
2023-03-06T02:58:27.936Z,12.95
2023-03-06T03:00:54.661Z,13.50
2023-03-06T03:03:21.369Z,9.82
2023-03-06T03:05:48.041Z,10.88
2023-03-06T03:08:22.647Z,9.88
2023-03-06T03:10:52.645Z,12.55
2023-03-06T03:13:19.861Z,10.80
2023-03-06T03:15:59.036Z,9.48
2023-03-06T03:18:25.769Z,11.52
2023-03-06T03:20:53.480Z,10.95
2023-03-06T03:23:20.225Z,11.45
2023-03-06T03:25:46.767Z,12.35
2023-03-06T03:28:13.695Z,11.63
2023-03-06T03:30:41.328Z,13.13
2023-03-06T03:33:10.865Z,12.30
2023-03-06T03:35:38.461Z,12.20
2023-03-06T03:38:05.151Z,11.25
2023-03-06T03:40:31.743Z,13.75
2023-03-06T03:42:59.240Z,12.52
2023-03-06T03:45:25.891Z,12.57
2023-03-06T03:47:52.568Z,14.77
2023-03-06T03:50:22.611Z,12.15
2023-03-06T03:52:49.764Z,13.25
2023-03-06T03:55:16.599Z,13.65
2023-03-06T03:57:43.211Z,15.70
2023-03-06T04:00:11.867Z,17.77
2023-03-06T04:02:41.648Z,15.60
2023-03-06T04:05:21.388Z,15.40
2023-03-06T04:07:48.651Z,13.80
2023-03-06T04:10:16.199Z,12.07
2023-03-06T04:12:43.716Z,13.73
2023-03-06T04:15:11.526Z,15.43
2023-03-06T04:17:38.895Z,16.70
2023-03-06T04:20:09.943Z,17.15
2023-03-06T04:22:38.131Z,16.38
2023-03-06T04:25:05.479Z,16.40
2023-03-06T04:27:32.159Z,14.30
2023-03-06T04:29:58.990Z,15.02
2023-03-06T04:32:26.073Z,15.50
2023-03-06T04:34:52.718Z,17.20
2023-03-06T04:37:21.694Z,16.98
2023-03-06T04:39:50.094Z,18.30
2023-03-06T04:42:16.961Z,24.95
2023-03-06T04:44:43.515Z,15.85
2023-03-06T04:47:10.443Z,17.83
2023-03-06T04:49:37.144Z,14.90
2023-03-06T04:52:04.220Z,17.00
2023-03-06T04:54:31.175Z,17.63
2023-03-06T04:57:00.338Z,18.30
2023-03-06T04:59:27.237Z,19.35
2023-03-06T05:01:54.248Z,17.92
2023-03-06T05:04:20.901Z,17.77
2023-03-06T05:06:47.474Z,16.20
2023-03-06T05:09:14.010Z,19.17
2023-03-06T05:11:40.861Z,19.00
2023-03-06T05:14:08.870Z,22.75
2023-03-06T05:16:35.538Z,19.08
2023-03-06T05:19:02.093Z,20.58
2023-03-06T05:21:28.748Z,20.85
2023-03-06T05:23:55.300Z,23.42
2023-03-06T05:26:22.025Z,24.15
2023-03-06T05:28:48.548Z,21.13
2023-03-06T05:31:16.883Z,23.85
2023-03-06T05:33:43.550Z,24.33
2023-03-06T05:36:11.187Z,23.77
2023-03-06T05:38:38.016Z,24.00
2023-03-06T05:41:05.042Z,26.63
2023-03-06T05:43:31.580Z,24.55
2023-03-06T05:46:02.173Z,22.67
2023-03-06T05:48:30.283Z,22.45
2023-03-06T05:50:57.109Z,22.80
2023-03-06T05:53:23.685Z,25.02
2023-03-06T05:55:56.446Z,28.10
2023-03-06T05:58:23.203Z,23.27
2023-03-06T06:00:49.700Z,23.80
2023-03-06T06:03:16.394Z,26.30
2023-03-06T06:05:44.344Z,22.48
2023-03-06T06:08:10.945Z,24.45
2023-03-06T06:10:38.184Z,28.27
2023-03-06T06:13:04.840Z,26.30
2023-03-06T06:15:31.484Z,30.35
2023-03-06T06:17:58.224Z,26.17
2023-03-06T06:20:25.355Z,25.00
2023-03-06T06:22:53.380Z,28.05
2023-03-06T06:25:19.997Z,27.00
2023-03-06T06:27:46.659Z,28.88
2023-03-06T06:30:13.515Z,28.08
2023-03-06T06:32:40.253Z,26.27
2023-03-06T06:35:07.394Z,28.02
2023-03-06T06:37:34.014Z,32.50
2023-03-06T06:40:01.940Z,27.60
2023-03-06T06:42:36.961Z,28.40
2023-03-06T06:45:06.815Z,29.25
2023-03-06T06:47:33.348Z,31.30
2023-03-06T06:49:59.998Z,28.40
2023-03-06T06:52:26.655Z,29.02
2023-03-06T06:54:53.505Z,31.20
2023-03-06T06:57:21.389Z,31.98
2023-03-06T06:59:48.023Z,35.25
2023-03-06T07:02:15.448Z,33.00
2023-03-06T07:05:00.426Z,29.77
2023-03-06T07:07:29.088Z,27.35
2023-03-06T07:09:55.827Z,32.45
2023-03-06T07:12:23.803Z,32.75
2023-03-06T07:14:50.429Z,32.38
2023-03-06T07:17:17.058Z,33.40
2023-03-06T07:19:43.568Z,30.17
2023-03-06T07:22:10.362Z,33.17
2023-03-06T07:24:36.916Z,38.03
2023-03-06T07:27:03.640Z,33.72
2023-03-06T07:29:31.559Z,34.58
2023-03-06T07:31:58.196Z,34.53
2023-03-06T07:34:24.801Z,34.40
2023-03-06T07:36:51.431Z,32.42
2023-03-06T07:39:18.339Z,34.88
2023-03-06T07:41:44.972Z,35.15
2023-03-06T07:44:11.589Z,30.88
2023-03-06T07:46:39.592Z,37.90
2023-03-06T07:49:06.118Z,35.63
2023-03-06T07:51:32.854Z,34.22
2023-03-06T07:53:59.408Z,30.77
2023-03-06T07:56:26.085Z,32.15
2023-03-06T07:58:52.907Z,36.70
2023-03-06T08:01:21.498Z,28.70
2023-03-06T08:03:49.707Z,33.60
2023-03-06T08:06:18.499Z,32.88
2023-03-06T08:08:46.606Z,29.75
2023-03-06T08:11:15.187Z,32.40
2023-03-06T08:13:42.237Z,31.60
2023-03-06T08:16:09.766Z,35.03
2023-03-06T08:18:36.486Z,35.05
2023-03-06T08:21:06.656Z,31.20
2023-03-06T08:23:33.935Z,30.33
2023-03-06T08:26:02.958Z,31.85
2023-03-06T08:28:29.861Z,32.22
2023-03-06T08:30:57.700Z,31.05
2023-03-06T08:33:24.327Z,31.65
2023-03-06T08:35:52.114Z,32.45
2023-03-06T08:38:20.024Z,29.73
2023-03-06T08:40:46.813Z,32.92
2023-03-06T08:43:14.365Z,29.98
2023-03-06T08:45:41.021Z,32.30
2023-03-06T08:48:07.754Z,29.45
2023-03-06T08:50:34.343Z,30.95
2023-03-06T08:53:00.854Z,24.35
2023-03-06T08:55:28.933Z,28.33
2023-03-06T08:57:55.464Z,27.15
2023-03-06T09:00:22.538Z,27.48
2023-03-06T09:02:49.120Z,28.80
2023-03-06T09:05:15.835Z,25.85
2023-03-06T09:07:42.389Z,27.42
2023-03-06T09:10:14.989Z,26.08
2023-03-06T09:12:50.095Z,30.65
2023-03-06T09:15:17.938Z,31.77
2023-03-06T09:17:44.525Z,28.15
2023-03-06T09:20:12.342Z,29.33
2023-03-06T09:22:38.946Z,31.25
2023-03-06T09:25:08.378Z,31.83
2023-03-06T09:27:35.041Z,29.65
2023-03-06T09:30:03.950Z,30.42
2023-03-06T09:32:30.527Z,31.55
2023-03-06T09:34:57.143Z,29.85
2023-03-06T09:37:23.726Z,31.88
2023-03-06T09:39:50.325Z,30.92
2023-03-06T09:42:20.123Z,25.85
2023-03-06T09:44:51.900Z,28.02
2023-03-06T09:47:48.989Z,23.48
2023-03-06T09:50:26.258Z,29.38
2023-03-06T09:53:15.411Z,24.25
2023-03-06T09:55:45.757Z,24.65
2023-03-06T09:58:16.201Z,25.05
2023-03-06T10:00:50.967Z,24.08
2023-03-06T10:03:24.576Z,24.30
2023-03-06T10:05:57.150Z,33.40
2023-03-06T10:08:28.588Z,26.02
2023-03-06T10:11:00.177Z,25.40
2023-03-06T10:13:32.537Z,28.70
2023-03-06T10:16:06.922Z,27.45
2023-03-06T10:18:35.046Z,24.48
2023-03-06T10:21:18.804Z,26.55
2023-03-06T10:23:52.828Z,31.30
2023-03-06T10:26:22.542Z,25.50
2023-03-06T10:28:56.941Z,28.85
2023-03-06T10:31:26.326Z,27.17
2023-03-06T10:33:56.879Z,27.33
2023-03-06T10:36:26.055Z,28.42
2023-03-06T10:38:53.784Z,26.75
2023-03-06T10:41:25.123Z,27.25
2023-03-06T10:44:18.023Z,26.95
2023-03-06T10:46:46.346Z,24.92
2023-03-06T10:49:29.399Z,28.65
2023-03-06T10:51:57.862Z,25.67
2023-03-06T10:54:25.258Z,26.70
2023-03-06T10:56:51.881Z,24.27
2023-03-06T10:59:20.506Z,23.13
2023-03-06T11:01:48.798Z,22.10
2023-03-06T11:04:22.842Z,20.95
2023-03-06T11:07:05.788Z,22.23
2023-03-06T11:09:33.197Z,19.27
2023-03-06T11:12:20.436Z,18.58
2023-03-06T11:14:47.076Z,17.42
2023-03-06T11:17:27.616Z,20.23
2023-03-06T11:20:15.388Z,17.73
2023-03-06T11:22:49.240Z,18.40
2023-03-06T11:25:19.036Z,20.67
2023-03-06T11:27:49.212Z,21.63
2023-03-06T11:30:20.234Z,19.15
2023-03-06T11:32:51.191Z,21.50
2023-03-06T11:35:24.525Z,16.95
2023-03-06T11:37:56.210Z,19.98
2023-03-06T11:40:28.246Z,20.50
2023-03-06T11:43:03.001Z,19.65
2023-03-06T11:45:34.392Z,18.42
2023-03-06T11:48:14.753Z,18.95
2023-03-06T11:50:43.655Z,19.65
2023-03-06T11:53:14.523Z,20.10
2023-03-06T11:55:49.912Z,18.40
2023-03-06T11:58:38.333Z,20.27
2023-03-06T12:01:09.135Z,23.85
2023-03-06T12:04:07.062Z,21.20
2023-03-06T12:06:45.678Z,20.73
2023-03-06T12:09:24.747Z,22.30
2023-03-06T12:12:03.844Z,19.67
2023-03-06T12:14:45.429Z,20.33
2023-03-06T12:17:20.979Z,20.70
2023-03-06T12:20:00.573Z,23.15
2023-03-06T12:22:41.661Z,28.33
2023-03-06T12:25:42.218Z,20.60
2023-03-06T12:28:31.005Z,27.40
2023-03-06T12:31:22.483Z,26.70
2023-03-06T12:34:01.032Z,20.50
2023-03-06T12:36:38.495Z,19.33
2023-03-06T12:39:17.033Z,19.98
2023-03-06T12:41:57.620Z,17.52
2023-03-06T12:44:49.574Z,18.38
2023-03-06T12:47:19.954Z,20.05
2023-03-06T12:49:53.120Z,20.00
2023-03-06T12:52:29.646Z,23.08
2023-03-06T12:54:58.395Z,21.63
2023-03-06T12:57:26.616Z,22.80
2023-03-06T12:59:54.206Z,20.45
2023-03-06T13:03:05.076Z,22.55
2023-03-06T13:05:42.513Z,19.98
2023-03-06T13:08:35.430Z,21.02
2023-03-06T13:11:28.019Z,23.70
2023-03-06T13:13:56.801Z,24.13
2023-03-06T13:16:28.943Z,20.17
2023-03-06T13:19:03.914Z,24.80
2023-03-06T13:22:01.899Z,21.73
2023-03-06T13:24:30.598Z,23.70
2023-03-06T13:27:03.421Z,23.00
2023-03-06T13:29:52.404Z,23.17
2023-03-06T13:32:30.037Z,31.73
2023-03-06T13:34:56.709Z,24.67
2023-03-06T13:37:48.476Z,20.02
2023-03-06T13:40:34.432Z,26.63
2023-03-06T13:43:21.786Z,18.75
2023-03-06T13:45:49.968Z,33.80
2023-03-06T13:48:44.402Z,27.40
2023-03-06T13:51:22.852Z,21.13
2023-03-06T13:54:30.293Z,24.30
2023-03-06T13:57:23.029Z,20.42
2023-03-06T14:00:34.305Z,18.08
2023-03-06T14:03:27.086Z,21.45
2023-03-06T14:05:53.867Z,20.13
2023-03-06T14:08:22.680Z,20.15
2023-03-06T14:11:00.597Z,22.00
2023-03-06T14:13:41.877Z,20.65
2023-03-06T14:16:19.844Z,21.27
2023-03-06T14:18:51.129Z,20.08
2023-03-06T14:21:28.018Z,20.95
2023-03-06T14:24:00.552Z,22.20
2023-03-06T14:26:31.706Z,20.65
2023-03-06T14:28:59.683Z,18.30
2023-03-06T14:31:30.129Z,19.48
2023-03-06T14:33:59.980Z,21.70
2023-03-06T14:36:33.808Z,17.90
2023-03-06T14:39:02.979Z,17.83
2023-03-06T14:41:31.545Z,19.65
2023-03-06T14:44:08.727Z,18.60
2023-03-06T14:46:35.910Z,17.98
2023-03-06T14:49:07.318Z,18.67
2023-03-06T14:51:40.663Z,18.60
2023-03-06T14:54:14.091Z,21.95
2023-03-06T14:56:42.134Z,19.60
2023-03-06T14:59:13.753Z,16.85
2023-03-06T15:01:42.145Z,15.88
2023-03-06T15:04:19.822Z,21.95
2023-03-06T15:06:46.691Z,16.20
2023-03-06T15:09:17.069Z,16.83
2023-03-06T15:11:55.785Z,16.70
2023-03-06T15:14:30.326Z,17.90
2023-03-06T15:17:14.278Z,19.23
2023-03-06T15:19:42.494Z,17.73
2023-03-06T15:22:25.364Z,16.38
2023-03-06T15:24:52.302Z,21.23
2023-03-06T15:27:26.735Z,18.52
2023-03-06T15:29:53.398Z,18.23
2023-03-06T15:32:30.351Z,18.38
2023-03-06T15:35:30.622Z,22.63
2023-03-06T15:37:58.219Z,20.20
2023-03-06T15:40:26.174Z,23.90
2023-03-06T15:42:53.372Z,23.33
2023-03-06T15:45:22.161Z,21.65
2023-03-06T15:47:51.021Z,24.85
2023-03-06T15:50:19.651Z,22.48
2023-03-06T15:52:48.770Z,21.90
2023-03-06T15:55:18.248Z,21.35
2023-03-06T15:57:49.692Z,19.75
2023-03-06T16:00:27.561Z,25.90
2023-03-06T16:02:55.046Z,22.13
2023-03-06T16:05:22.479Z,20.20
2023-03-06T16:07:50.677Z,18.80
2023-03-06T16:10:19.227Z,20.88
2023-03-06T16:12:49.301Z,21.20
2023-03-06T16:15:18.979Z,24.10
2023-03-06T16:17:46.131Z,27.50
2023-03-06T16:20:17.841Z,19.20
2023-03-06T16:22:45.261Z,20.15
2023-03-06T16:25:13.741Z,25.63
2023-03-06T16:27:40.447Z,20.17
2023-03-06T16:30:11.632Z,20.33
2023-03-06T16:32:38.246Z,18.13
2023-03-06T16:35:05.393Z,19.77
2023-03-06T16:37:32.169Z,19.13
2023-03-06T16:39:59.114Z,20.77
2023-03-06T16:42:27.504Z,19.90
2023-03-06T16:44:54.250Z,19.02
2023-03-06T16:47:20.920Z,23.33
2023-03-06T16:49:47.508Z,22.77
2023-03-06T16:52:14.443Z,20.75
2023-03-06T16:54:42.399Z,26.38
2023-03-06T16:57:13.913Z,21.38
2023-03-06T16:59:42.364Z,27.25
2023-03-06T17:02:09.800Z,23.27
2023-03-06T17:04:36.630Z,18.70
2023-03-06T17:07:03.691Z,24.77
2023-03-06T17:09:30.941Z,24.42
2023-03-06T17:11:57.630Z,22.67
2023-03-06T17:14:24.161Z,23.77
2023-03-06T17:16:53.773Z,22.38
2023-03-06T17:19:20.901Z,21.33
2023-03-06T17:21:49.951Z,23.33
2023-03-06T17:24:16.488Z,23.90
2023-03-06T17:26:43.070Z,21.02
2023-03-06T17:29:09.592Z,21.20
2023-03-06T17:31:36.188Z,27.40
2023-03-06T17:34:04.042Z,21.85
2023-03-06T17:36:31.700Z,24.65
2023-03-06T17:38:59.863Z,21.58
2023-03-06T17:41:26.806Z,20.73
2023-03-06T17:43:55.957Z,22.00
2023-03-06T17:46:22.764Z,25.13
2023-03-06T17:48:49.722Z,23.60
2023-03-06T17:51:18.126Z,27.70
2023-03-06T17:53:44.854Z,27.55
2023-03-06T17:56:13.836Z,28.95
2023-03-06T17:58:40.512Z,21.52
2023-03-06T18:01:11.268Z,24.15
2023-03-06T18:03:38.720Z,26.90
2023-03-06T18:06:05.996Z,24.30
2023-03-06T18:08:33.955Z,23.92
2023-03-06T18:11:01.222Z,26.58
2023-03-06T18:13:27.836Z,27.88
2023-03-06T18:15:54.405Z,25.95
2023-03-06T18:18:21.124Z,24.75
2023-03-06T18:20:47.899Z,23.77
2023-03-06T18:23:14.492Z,29.23
2023-03-06T18:25:42.430Z,27.60
2023-03-06T18:28:09.179Z,26.75
2023-03-06T18:30:36.092Z,25.20
2023-03-06T18:33:02.834Z,30.05
2023-03-06T18:35:29.411Z,28.05
2023-03-06T18:37:56.433Z,53.75
2023-03-06T18:40:24.793Z,59.00
2023-03-06T18:42:53.191Z,52.35
2023-03-06T18:45:20.192Z,53.50
2023-03-06T18:47:46.967Z,43.05
2023-03-06T18:50:13.480Z,37.90
2023-03-06T18:52:40.069Z,33.13
2023-03-06T18:55:07.094Z,35.83
2023-03-06T18:57:33.771Z,33.28
2023-03-06T19:00:01.955Z,34.88
2023-03-06T19:02:28.910Z,33.10
2023-03-06T19:04:55.439Z,35.67
2023-03-06T19:07:22.469Z,25.48
2023-03-06T19:09:49.068Z,28.77
2023-03-06T19:12:16.202Z,28.90
2023-03-06T19:14:43.022Z,29.10
2023-03-06T19:17:11.187Z,28.90
2023-03-06T19:19:39.305Z,24.50
2023-03-06T19:22:05.995Z,30.05
2023-03-06T19:24:32.573Z,25.70
2023-03-06T19:26:59.244Z,29.63
2023-03-06T19:29:25.878Z,27.00
2023-03-06T19:31:52.658Z,25.70
2023-03-06T19:34:20.543Z,25.40
2023-03-06T19:36:49.943Z,27.95
2023-03-06T19:39:16.510Z,27.63
2023-03-06T19:41:43.147Z,27.20
2023-03-06T19:44:09.668Z,27.77
2023-03-06T19:46:36.367Z,25.58
2023-03-06T19:49:04.427Z,26.60
2023-03-06T19:51:32.577Z,24.35
2023-03-06T19:53:59.105Z,32.58
2023-03-06T19:56:30.287Z,31.10
2023-03-06T19:58:57.421Z,30.60
2023-03-06T20:01:26.290Z,26.05
2023-03-06T20:03:54.342Z,26.27
2023-03-06T20:06:20.846Z,24.95
2023-03-06T20:08:48.935Z,27.88
2023-03-06T20:11:17.679Z,29.63
2023-03-06T20:13:47.498Z,28.35
2023-03-06T20:16:14.373Z,28.75
2023-03-06T20:18:40.923Z,30.20
2023-03-06T20:21:07.724Z,26.48
2023-03-06T20:23:35.046Z,25.45
2023-03-06T20:26:04.593Z,22.40
2023-03-06T20:28:31.216Z,20.50
2023-03-06T20:30:58.285Z,24.60
2023-03-06T20:33:24.915Z,26.35
2023-03-06T20:35:51.446Z,27.80
2023-03-06T20:38:19.895Z,26.58
2023-03-06T20:40:48.266Z,25.70
2023-03-06T20:43:16.181Z,22.30
2023-03-06T20:45:42.756Z,26.70
2023-03-06T20:48:09.290Z,24.63
2023-03-06T20:50:35.816Z,25.63
2023-03-06T20:53:02.345Z,27.20
2023-03-06T20:55:28.899Z,27.30
2023-03-06T20:57:55.393Z,26.90
2023-03-06T21:00:23.253Z,24.15
2023-03-06T21:02:49.792Z,27.40
2023-03-06T21:05:16.550Z,23.02
2023-03-06T21:07:43.140Z,21.02
2023-03-06T21:10:10.501Z,24.45
2023-03-06T21:12:36.998Z,23.13
2023-03-06T21:15:04.246Z,24.00
2023-03-06T21:17:32.157Z,22.40
2023-03-06T21:19:59.155Z,51.70
2023-03-06T21:22:25.678Z,57.53
2023-03-06T21:24:52.269Z,41.90
2023-03-06T21:27:18.887Z,37.53
2023-03-06T21:29:45.444Z,25.35
2023-03-06T21:32:11.984Z,24.38
2023-03-06T21:34:39.854Z,23.45
2023-03-06T21:37:06.382Z,23.23
2023-03-06T21:39:32.940Z,26.23
2023-03-06T21:41:59.465Z,21.52
2023-03-06T21:44:26.071Z,27.50
2023-03-06T21:46:52.573Z,24.60
2023-03-06T21:49:19.480Z,23.60
2023-03-06T21:51:47.638Z,25.50
2023-03-06T21:54:14.159Z,25.65
2023-03-06T21:56:40.704Z,30.95
2023-03-06T21:59:07.233Z,28.42
2023-03-06T22:01:33.973Z,30.50
2023-03-06T22:04:00.651Z,31.05
2023-03-06T22:06:29.055Z,23.88
2023-03-06T22:08:58.317Z,23.92
2023-03-06T22:11:26.309Z,25.35
2023-03-06T22:13:52.867Z,22.15
2023-03-06T22:16:19.956Z,24.00
2023-03-06T22:18:47.489Z,24.30
2023-03-06T22:21:16.224Z,24.65
2023-03-06T22:23:43.232Z,25.20
2023-03-06T22:26:12.510Z,24.17
2023-03-06T22:28:39.617Z,24.52
2023-03-06T22:31:08.152Z,20.98
2023-03-06T22:33:35.187Z,19.80
2023-03-06T22:36:02.366Z,23.73
2023-03-06T22:38:28.902Z,24.80
2023-03-06T22:40:56.405Z,23.60
2023-03-06T22:43:24.294Z,24.05
2023-03-06T22:45:50.803Z,23.52
2023-03-06T22:48:17.335Z,21.80
2023-03-06T22:50:44.184Z,23.15
2023-03-06T22:53:10.998Z,20.63
2023-03-06T22:55:37.514Z,25.92
2023-03-06T22:58:04.058Z,22.92
2023-03-06T23:00:31.950Z,25.30
2023-03-06T23:02:58.452Z,28.27
2023-03-06T23:05:29.159Z,26.35
2023-03-06T23:07:56.108Z,23.65
2023-03-06T23:10:22.616Z,22.52
2023-03-06T23:13:07.835Z,24.73
2023-03-06T23:15:54.203Z,22.85
2023-03-06T23:18:39.819Z,25.02
2023-03-06T23:21:25.407Z,22.13
2023-03-06T23:24:10.720Z,23.45
2023-03-06T23:26:37.324Z,20.65
2023-03-06T23:29:03.880Z,23.25
2023-03-06T23:31:31.871Z,24.00
2023-03-06T23:34:00.386Z,23.80
2023-03-06T23:36:28.174Z,21.65
2023-03-06T23:38:54.932Z,21.55
2023-03-06T23:41:22.893Z,24.98
2023-03-06T23:43:50.710Z,26.20
2023-03-06T23:46:20.375Z,22.05
2023-03-06T23:48:48.341Z,24.77
2023-03-06T23:51:17.392Z,19.23
2023-03-06T23:53:45.064Z,21.17
2023-03-06T23:56:12.624Z,21.38
2023-03-06T23:58:39.825Z,16.48
